createdAt,value
2019-02-19T00:00:33.553Z,924.36
2019-02-19T00:02:05.229Z,924.46
2019-02-19T00:03:37.063Z,924.45
2019-02-19T00:05:08.850Z,924.44
2019-02-19T00:06:40.651Z,924.44
2019-02-19T00:08:12.466Z,924.42
2019-02-19T00:09:44.300Z,924.51
2019-02-19T00:11:16.120Z,924.53
2019-02-19T00:12:48.458Z,924.55
2019-02-19T00:14:19.722Z,924.63
2019-02-19T00:15:51.837Z,924.65
2019-02-19T00:17:23.379Z,924.71
2019-02-19T00:18:55.191Z,924.71
2019-02-19T00:20:27.014Z,924.74
2019-02-19T00:21:59.127Z,924.74
2019-02-19T00:23:30.637Z,924.76
2019-02-19T00:25:02.470Z,924.76
2019-02-19T00:26:34.269Z,924.82
2019-02-19T00:28:06.479Z,924.80
2019-02-19T00:29:37.900Z,924.81
2019-02-19T00:31:09.708Z,924.78
2019-02-19T00:32:41.498Z,924.88
2019-02-19T00:34:13.405Z,924.80
2019-02-19T00:35:45.169Z,924.81
2019-02-19T00:37:16.985Z,924.85
2019-02-19T00:38:48.980Z,924.85
2019-02-19T00:40:20.759Z,924.85
2019-02-19T00:41:52.395Z,924.81
2019-02-19T00:43:24.209Z,924.76
2019-02-19T00:44:56.013Z,924.73
2019-02-19T00:46:27.996Z,924.78
2019-02-19T00:47:59.671Z,924.84
2019-02-19T00:49:31.604Z,924.91
2019-02-19T00:51:03.299Z,924.90
2019-02-19T00:52:35.363Z,924.89
2019-02-19T00:54:06.926Z,924.87
2019-02-19T00:55:38.752Z,924.78
2019-02-19T00:57:10.576Z,924.72
2019-02-19T00:58:42.653Z,924.70
2019-02-19T01:00:14.221Z,924.73
2019-02-19T01:01:46.009Z,924.75
2019-02-19T01:03:17.919Z,924.74
2019-02-19T01:04:50.162Z,924.81
2019-02-19T01:06:21.481Z,924.81
2019-02-19T01:07:53.356Z,924.86
2019-02-19T01:09:25.133Z,924.90
2019-02-19T01:10:56.999Z,924.94
2019-02-19T01:12:28.743Z,924.98
2019-02-19T01:14:00.550Z,924.96
2019-02-19T01:15:32.472Z,924.94
2019-02-19T01:17:04.190Z,924.94
2019-02-19T01:18:35.936Z,924.90
2019-02-19T01:20:07.843Z,924.92
2019-02-19T01:21:39.563Z,924.93
2019-02-19T01:23:11.723Z,924.99
2019-02-19T01:24:43.402Z,924.98
2019-02-19T01:26:15.053Z,924.93
2019-02-19T01:27:46.913Z,924.96
2019-02-19T01:29:18.824Z,925.00
2019-02-19T01:30:50.524Z,924.96
2019-02-19T01:32:22.306Z,924.94
2019-02-19T01:33:54.164Z,924.96
2019-02-19T01:35:25.981Z,924.94
2019-02-19T01:36:57.712Z,924.94
2019-02-19T01:38:29.611Z,924.93
2019-02-19T01:40:01.400Z,924.95
2019-02-19T01:41:33.203Z,924.94
2019-02-19T01:43:05.006Z,924.94
2019-02-19T01:44:36.799Z,924.91
2019-02-19T01:46:08.684Z,924.91
2019-02-19T01:47:40.622Z,924.90
2019-02-19T01:49:12.285Z,924.95
2019-02-19T01:50:44.053Z,924.96
2019-02-19T01:52:15.966Z,924.98
2019-02-19T01:53:47.747Z,925.00
2019-02-19T01:55:19.582Z,924.97
2019-02-19T01:56:51.374Z,924.93
2019-02-19T01:58:23.206Z,924.83
2019-02-19T01:59:54.967Z,924.86
2019-02-19T02:01:26.850Z,924.86
2019-02-19T02:02:58.636Z,924.90
2019-02-19T02:04:30.395Z,924.92
2019-02-19T02:06:02.402Z,925.01
2019-02-19T02:07:34.083Z,925.05
2019-02-19T02:09:05.857Z,925.10
2019-02-19T02:10:37.740Z,925.04
2019-02-19T02:12:09.563Z,925.01
2019-02-19T02:13:41.376Z,924.89
2019-02-19T02:15:13.142Z,924.82
2019-02-19T02:16:44.918Z,924.79
2019-02-19T02:18:16.732Z,924.80
2019-02-19T02:21:20.424Z,924.89
2019-02-19T02:22:52.249Z,924.97
2019-02-19T02:24:24.150Z,924.96
2019-02-19T02:25:55.813Z,924.92
2019-02-19T02:27:27.627Z,924.92
2019-02-19T02:28:59.479Z,924.89
2019-02-19T02:30:31.368Z,924.89
2019-02-19T02:32:03.069Z,924.94
2019-02-19T02:33:34.885Z,924.97
2019-02-19T02:35:06.701Z,924.99
2019-02-19T02:36:38.542Z,924.98
2019-02-19T02:38:10.366Z,924.91
2019-02-19T02:39:42.145Z,924.93
2019-02-19T02:41:13.962Z,924.94
2019-02-19T02:42:45.901Z,924.96
2019-02-19T02:44:17.592Z,924.85
2019-02-19T02:45:53.276Z,924.88
2019-02-19T02:47:21.237Z,924.87
2019-02-19T02:48:53.048Z,924.80
2019-02-19T02:50:24.893Z,924.79
2019-02-19T02:51:56.671Z,924.74
2019-02-19T02:53:28.548Z,924.78
2019-02-19T02:55:00.341Z,924.74
2019-02-19T02:56:32.165Z,924.70
2019-02-19T02:58:03.956Z,924.65
2019-02-19T02:59:35.747Z,924.65
2019-02-19T03:01:07.660Z,924.66
2019-02-19T03:02:39.375Z,924.68
2019-02-19T03:04:11.195Z,924.68
2019-02-19T03:05:43.009Z,924.66
2019-02-19T03:07:14.821Z,924.57
2019-02-19T03:08:46.638Z,924.51
2019-02-19T03:10:18.490Z,924.42
2019-02-19T03:11:50.284Z,924.38
2019-02-19T03:13:22.089Z,924.28
2019-02-19T03:14:53.921Z,924.21
2019-02-19T03:16:25.775Z,924.23
2019-02-19T03:17:57.590Z,924.20
2019-02-19T03:19:29.476Z,924.19
2019-02-19T03:21:01.204Z,924.14
2019-02-19T03:22:33.025Z,924.11
2019-02-19T03:24:04.786Z,924.06
2019-02-19T03:25:36.606Z,924.04
2019-02-19T03:27:08.496Z,924.05
2019-02-19T03:28:40.235Z,924.05
2019-02-19T03:30:12.127Z,924.03
2019-02-19T03:31:43.940Z,923.93
2019-02-19T03:33:15.699Z,923.95
2019-02-19T03:34:47.547Z,923.85
2019-02-19T03:36:19.409Z,923.89
2019-02-19T03:37:51.308Z,923.85
2019-02-19T03:39:22.972Z,923.79
2019-02-19T03:40:54.847Z,923.81
2019-02-19T03:42:26.637Z,923.80
2019-02-19T03:43:58.479Z,923.81
2019-02-19T03:45:30.289Z,923.73
2019-02-19T03:47:02.023Z,923.75
2019-02-19T03:48:33.917Z,923.67
2019-02-19T03:50:05.729Z,923.64
2019-02-19T03:51:37.548Z,923.71
2019-02-19T03:53:09.356Z,923.63
2019-02-19T03:54:41.161Z,923.65
2019-02-19T03:56:13.097Z,923.62
2019-02-19T03:57:44.810Z,923.64
2019-02-19T03:59:16.610Z,923.70
2019-02-19T04:00:48.419Z,923.66
2019-02-19T04:02:20.242Z,923.66
2019-02-19T04:03:52.072Z,923.64
2019-02-19T04:05:23.872Z,923.63
2019-02-19T04:06:55.684Z,923.56
2019-02-19T04:08:27.516Z,923.56
2019-02-19T04:09:59.333Z,923.50
2019-02-19T04:11:31.140Z,923.49
2019-02-19T04:13:02.945Z,923.50
2019-02-19T04:14:34.840Z,923.47
2019-02-19T04:16:06.505Z,923.56
2019-02-19T04:17:38.381Z,923.53
2019-02-19T04:19:10.227Z,923.53
2019-02-19T04:20:42.014Z,923.51
2019-02-19T04:22:13.845Z,923.58
2019-02-19T04:23:45.648Z,923.55
2019-02-19T04:25:17.427Z,923.50
2019-02-19T04:26:49.286Z,923.51
2019-02-19T04:28:21.124Z,923.49
2019-02-19T04:29:52.890Z,923.49
2019-02-19T04:31:24.744Z,923.52
2019-02-19T04:32:56.722Z,923.55
2019-02-19T04:34:28.353Z,923.56
2019-02-19T04:36:00.133Z,923.53
2019-02-19T04:37:31.990Z,923.46
2019-02-19T04:39:03.819Z,923.44
2019-02-19T04:40:35.607Z,923.28
2019-02-19T04:42:07.365Z,923.22
2019-02-19T04:43:39.235Z,923.21
2019-02-19T04:45:11.188Z,923.19
2019-02-19T04:46:42.897Z,923.21
2019-02-19T04:48:14.668Z,923.21
2019-02-19T04:49:46.530Z,923.19
2019-02-19T04:51:18.428Z,923.20
2019-02-19T04:52:50.125Z,923.21
2019-02-19T04:54:21.965Z,923.16
2019-02-19T04:55:53.768Z,923.10
2019-02-19T04:57:25.592Z,923.09
2019-02-19T04:58:57.398Z,923.06
2019-02-19T05:00:29.228Z,923.03
2019-02-19T05:02:00.949Z,923.03
2019-02-19T05:03:32.853Z,923.00
2019-02-19T05:05:04.665Z,922.98
2019-02-19T05:06:36.485Z,923.00
2019-02-19T05:08:08.263Z,923.00
2019-02-19T05:09:40.156Z,922.93
2019-02-19T05:11:11.906Z,922.90
2019-02-19T05:12:43.732Z,922.88
2019-02-19T05:14:15.536Z,922.93
2019-02-19T05:15:47.301Z,922.89
2019-02-19T05:17:19.165Z,922.92
2019-02-19T05:18:50.992Z,922.97
2019-02-19T05:20:22.829Z,922.96
2019-02-19T05:21:54.611Z,922.97
2019-02-19T05:23:26.455Z,922.95
2019-02-19T05:24:58.266Z,922.96
2019-02-19T05:26:30.071Z,923.03
2019-02-19T05:28:01.986Z,923.02
2019-02-19T05:29:33.620Z,922.98
2019-02-19T05:31:05.441Z,922.94
2019-02-19T05:32:37.304Z,922.91
2019-02-19T05:34:09.120Z,922.89
2019-02-19T05:35:40.939Z,922.84
2019-02-19T05:37:12.691Z,922.87
2019-02-19T05:38:44.579Z,922.92
2019-02-19T05:40:16.384Z,922.97
2019-02-19T05:41:48.191Z,922.96
2019-02-19T05:43:20.029Z,923.00
2019-02-19T05:44:51.856Z,923.04
2019-02-19T05:46:23.921Z,923.07
2019-02-19T05:47:55.424Z,923.07
2019-02-19T05:49:27.275Z,923.06
2019-02-19T05:50:59.041Z,923.06
2019-02-19T05:52:30.932Z,923.06
2019-02-19T05:54:02.750Z,923.09
2019-02-19T05:55:34.495Z,923.08
2019-02-19T05:57:06.361Z,923.07
2019-02-19T05:58:38.191Z,923.06
2019-02-19T06:00:10.003Z,923.09
2019-02-19T06:01:41.800Z,923.02
2019-02-19T06:03:13.609Z,923.00
2019-02-19T06:04:45.520Z,923.00
2019-02-19T06:06:17.197Z,923.02
2019-02-19T06:07:49.041Z,923.02
2019-02-19T06:09:20.815Z,923.00
2019-02-19T06:10:52.616Z,923.02
2019-02-19T06:12:24.453Z,923.00
2019-02-19T06:13:56.250Z,923.02
2019-02-19T06:15:28.061Z,923.02
2019-02-19T06:16:59.989Z,923.00
2019-02-19T06:18:31.691Z,922.98
2019-02-19T06:20:03.505Z,922.97
2019-02-19T06:21:35.320Z,922.97
2019-02-19T06:23:07.254Z,922.96
2019-02-19T06:24:38.966Z,922.97
2019-02-19T06:26:10.766Z,922.94
2019-02-19T06:27:42.572Z,922.99
2019-02-19T06:29:14.390Z,922.96
2019-02-19T06:30:46.249Z,922.94
2019-02-19T06:32:18.050Z,922.90
2019-02-19T06:33:49.870Z,922.93
2019-02-19T06:35:21.643Z,922.93
2019-02-19T06:36:53.488Z,922.91
2019-02-19T06:38:25.313Z,922.94
2019-02-19T06:39:57.114Z,922.89
2019-02-19T06:41:29.082Z,922.92
2019-02-19T06:43:00.787Z,922.92
2019-02-19T06:44:32.593Z,922.92
2019-02-19T06:46:04.408Z,922.95
2019-02-19T06:49:08.063Z,923.03
2019-02-19T06:50:39.852Z,923.07
2019-02-19T06:52:11.656Z,923.01
2019-02-19T06:53:43.479Z,923.01
2019-02-19T06:55:15.263Z,923.03
2019-02-19T06:56:47.146Z,923.00
2019-02-19T06:58:18.930Z,922.98
2019-02-19T06:59:50.673Z,922.99
2019-02-19T07:01:22.635Z,922.98
2019-02-19T07:02:54.383Z,923.00
2019-02-19T07:04:26.205Z,923.00
2019-02-19T07:05:57.999Z,923.00
2019-02-19T07:07:29.748Z,923.00
2019-02-19T07:09:01.620Z,922.99
2019-02-19T07:10:33.440Z,922.89
2019-02-19T07:12:05.239Z,922.94
2019-02-19T07:13:37.031Z,922.94
2019-02-19T07:15:08.867Z,923.03
2019-02-19T07:16:40.720Z,923.08
2019-02-19T07:18:12.504Z,923.06
2019-02-19T07:19:44.412Z,923.09
2019-02-19T07:21:16.142Z,923.11
2019-02-19T07:22:47.954Z,923.12
2019-02-19T07:24:19.777Z,923.10
2019-02-19T07:25:51.537Z,923.05
2019-02-19T07:27:23.391Z,923.04
2019-02-19T07:28:55.210Z,922.97
2019-02-19T07:30:27.000Z,922.92
2019-02-19T07:31:58.860Z,922.93
2019-02-19T07:33:30.623Z,923.00
2019-02-19T07:35:02.461Z,922.97
2019-02-19T07:36:34.263Z,922.96
2019-02-19T07:38:06.189Z,922.97
2019-02-19T07:39:37.851Z,922.92
2019-02-19T07:41:09.715Z,922.96
2019-02-19T07:42:41.526Z,922.98
2019-02-19T07:44:13.347Z,923.00
2019-02-19T07:45:45.108Z,922.98
2019-02-19T07:47:24.418Z,922.98
2019-02-19T07:48:48.802Z,923.02
2019-02-19T07:50:20.750Z,923.05
2019-02-19T07:51:52.431Z,923.04
2019-02-19T07:53:24.241Z,923.04
2019-02-19T07:54:56.044Z,923.08
2019-02-19T07:56:27.953Z,923.08
2019-02-19T07:57:59.681Z,923.10
2019-02-19T07:59:31.485Z,923.12
2019-02-19T08:01:03.296Z,923.12
2019-02-19T08:02:35.273Z,923.12
2019-02-19T08:04:06.911Z,923.13
2019-02-19T08:05:38.727Z,923.13
2019-02-19T08:07:10.537Z,923.10
2019-02-19T08:08:42.372Z,923.10
2019-02-19T08:10:14.217Z,923.13
2019-02-19T08:11:46.011Z,923.20
2019-02-19T08:13:17.835Z,923.27
2019-02-19T08:14:49.725Z,923.29
2019-02-19T08:16:21.379Z,923.32
2019-02-19T08:17:53.245Z,923.35
2019-02-19T08:19:25.060Z,923.40
2019-02-19T08:20:56.879Z,923.37
2019-02-19T08:22:28.661Z,923.38
2019-02-19T08:24:00.534Z,923.42
2019-02-19T08:25:32.372Z,923.48
2019-02-19T08:27:04.119Z,923.46
2019-02-19T08:28:35.891Z,923.48
2019-02-19T08:30:07.778Z,923.51
2019-02-19T08:31:39.591Z,923.52
2019-02-19T08:33:11.505Z,923.52
2019-02-19T08:34:43.242Z,923.53
2019-02-19T08:36:15.011Z,923.60
2019-02-19T08:37:46.871Z,923.65
2019-02-19T08:39:18.689Z,923.66
2019-02-19T08:40:50.443Z,923.62
2019-02-19T08:42:22.257Z,923.67
2019-02-19T08:43:54.103Z,923.71
2019-02-19T08:45:26.040Z,923.73
2019-02-19T08:46:57.698Z,923.74
2019-02-19T08:48:29.522Z,923.76
2019-02-19T08:50:01.288Z,923.83
2019-02-19T08:51:33.289Z,923.83
2019-02-19T08:53:04.989Z,923.87
2019-02-19T08:54:36.809Z,923.87
2019-02-19T08:56:08.643Z,923.89
2019-02-19T08:57:40.444Z,923.90
2019-02-19T08:59:12.247Z,923.90
2019-02-19T09:00:44.092Z,923.92
2019-02-19T09:02:15.914Z,923.89
2019-02-19T09:03:48.023Z,923.94
2019-02-19T09:05:19.473Z,923.91
2019-02-19T09:06:51.502Z,923.96
2019-02-19T09:08:23.140Z,923.96
2019-02-19T09:09:55.081Z,924.01
2019-02-19T09:11:26.691Z,924.00
2019-02-19T09:14:30.401Z,924.06
2019-02-19T09:16:02.239Z,924.02
2019-02-19T09:17:34.052Z,924.07
2019-02-19T09:19:05.932Z,924.10
2019-02-19T09:20:37.657Z,924.18
2019-02-19T09:22:09.395Z,924.25
2019-02-19T09:23:42.393Z,924.21
2019-02-19T09:25:13.054Z,924.25
2019-02-19T09:26:44.881Z,924.25
2019-02-19T09:28:16.831Z,924.24
2019-02-19T09:29:48.478Z,924.30
2019-02-19T09:34:24.912Z,924.42
2019-02-19T09:35:56.052Z,924.38
2019-02-19T09:37:28.185Z,924.43
2019-02-19T09:38:59.589Z,924.37
2019-02-19T09:40:33.457Z,924.43
2019-02-19T09:42:03.281Z,924.46
2019-02-19T09:43:35.703Z,924.46
2019-02-19T09:46:38.726Z,924.48
2019-02-19T09:48:11.013Z,924.47
2019-02-19T09:49:42.251Z,924.42
2019-02-19T09:51:13.980Z,924.57
2019-02-19T09:52:45.880Z,924.51
2019-02-19T09:54:17.534Z,924.52
2019-02-19T09:55:49.359Z,924.46
2019-02-19T09:57:21.194Z,924.53
2019-02-19T10:00:25.093Z,924.47
2019-02-19T10:01:56.725Z,924.48
2019-02-19T10:05:00.338Z,924.60
2019-02-19T10:06:32.814Z,924.66
2019-02-19T10:08:03.985Z,924.68
2019-02-19T10:09:35.828Z,924.79
2019-02-19T10:11:07.508Z,924.91
2019-02-19T10:12:39.328Z,924.95
2019-02-19T10:14:11.197Z,925.08
2019-02-19T10:15:43.019Z,925.11
2019-02-19T10:18:46.698Z,924.92
2019-02-19T10:20:18.472Z,924.98
2019-02-19T10:21:50.529Z,924.88
2019-02-19T10:23:22.280Z,924.99
2019-02-19T10:24:54.123Z,924.98
2019-02-19T10:26:25.820Z,924.98
2019-02-19T10:29:29.379Z,925.03
2019-02-19T10:31:01.385Z,925.07
2019-02-19T10:32:32.992Z,924.96
2019-02-19T10:34:05.095Z,925.07
2019-02-19T10:35:36.841Z,925.09
2019-02-19T10:37:08.847Z,925.18
2019-02-19T10:38:40.254Z,925.07
2019-02-19T10:40:12.282Z,925.38
2019-02-19T10:41:44.112Z,925.33
2019-02-19T10:43:16.223Z,925.21
2019-02-19T10:44:47.758Z,925.12
2019-02-19T10:46:19.925Z,925.10
2019-02-19T10:47:51.239Z,925.03
2019-02-19T10:50:55.163Z,925.35
2019-02-19T10:52:26.699Z,925.19
2019-02-19T10:55:30.306Z,925.45
2019-02-19T10:57:02.207Z,925.18
2019-02-19T10:58:34.722Z,925.11
2019-02-19T11:00:06.102Z,925.04
2019-02-19T11:01:38.045Z,925.06
2019-02-19T11:03:09.553Z,925.15
2019-02-19T11:04:41.576Z,925.10
2019-02-19T11:06:13.094Z,925.14
2019-02-19T11:07:45.247Z,925.02
2019-02-19T11:09:16.739Z,925.23
2019-02-19T11:10:48.528Z,925.35
2019-02-19T11:12:20.367Z,925.33
2019-02-19T11:13:52.381Z,925.33
2019-02-19T11:15:24.278Z,925.08
2019-02-19T11:16:56.367Z,925.08
2019-02-19T11:18:28.751Z,925.20
2019-02-19T11:19:59.546Z,925.29
2019-02-19T11:21:31.803Z,925.37
2019-02-19T11:23:03.414Z,925.21
2019-02-19T11:24:35.169Z,925.29
2019-02-19T11:26:07.135Z,925.47
2019-02-19T11:27:39.192Z,925.20
2019-02-19T11:29:11.232Z,925.05
2019-02-19T11:32:14.730Z,925.33
2019-02-19T11:33:45.869Z,925.58
2019-02-19T11:35:17.705Z,925.50
2019-02-19T11:36:50.249Z,925.36
2019-02-19T11:38:21.409Z,925.44
2019-02-19T11:39:53.914Z,925.41
2019-02-19T11:41:25.412Z,925.33
2019-02-19T11:42:57.797Z,925.50
2019-02-19T11:44:28.768Z,925.32
2019-02-19T11:46:00.555Z,925.56
2019-02-19T11:47:32.535Z,925.43
2019-02-19T11:49:04.181Z,925.20
2019-02-19T11:50:37.925Z,925.21
2019-02-19T11:52:08.331Z,925.30
2019-02-19T11:53:39.836Z,925.21
2019-02-19T11:55:12.017Z,925.40
2019-02-19T11:56:43.573Z,925.29
2019-02-19T11:58:15.330Z,925.31
2019-02-19T11:59:46.987Z,925.36
2019-02-19T12:01:19.170Z,925.67
2019-02-19T12:02:50.935Z,925.64
2019-02-19T12:04:22.570Z,925.50
2019-02-19T12:05:54.182Z,925.60
2019-02-19T12:08:58.306Z,925.55
2019-02-19T12:13:33.935Z,925.32
2019-02-19T12:15:05.281Z,925.66
2019-02-19T12:18:09.191Z,925.42
2019-02-19T12:21:12.507Z,925.56
2019-02-19T12:22:44.279Z,925.29
2019-02-19T12:24:16.392Z,925.47
2019-02-19T12:25:48.114Z,925.41
2019-02-19T12:27:19.793Z,925.29
2019-02-19T12:30:23.377Z,925.57
2019-02-19T12:31:55.347Z,925.55
2019-02-19T12:33:27.431Z,925.36
2019-02-19T12:34:59.283Z,925.44
2019-02-19T12:36:30.748Z,925.62
2019-02-19T12:38:02.806Z,925.44
2019-02-19T12:39:34.721Z,925.62
2019-02-19T12:41:06.755Z,925.71
2019-02-19T12:42:38.627Z,925.63
2019-02-19T12:44:10.612Z,925.37
2019-02-19T12:45:41.950Z,925.48
2019-02-19T12:47:13.783Z,925.57
2019-02-19T12:48:45.510Z,925.49
2019-02-19T12:50:17.357Z,925.59
2019-02-19T12:51:50.474Z,925.32
2019-02-19T12:56:24.808Z,925.21
2019-02-19T12:57:56.260Z,925.17
2019-02-19T12:59:29.189Z,925.32
2019-02-19T13:01:00.918Z,925.02
2019-02-19T13:02:31.917Z,925.02
2019-02-19T13:04:03.661Z,925.08
2019-02-19T13:07:07.237Z,925.06
2019-02-19T13:08:39.032Z,925.12
2019-02-19T13:11:42.915Z,925.01
2019-02-19T13:13:14.755Z,925.15
2019-02-19T13:14:46.557Z,925.04
2019-02-19T13:16:18.195Z,924.83
2019-02-19T13:17:50.514Z,925.02
2019-02-19T13:19:21.915Z,924.96
2019-02-19T13:20:53.795Z,924.90
2019-02-19T13:22:25.679Z,925.07
2019-02-19T13:23:58.072Z,924.81
2019-02-19T13:25:29.865Z,924.91
2019-02-19T13:28:33.209Z,924.83
2019-02-19T13:30:05.692Z,924.67
2019-02-19T13:31:36.419Z,924.44
2019-02-19T13:36:11.920Z,924.55
2019-02-19T13:37:44.435Z,924.69
2019-02-19T13:39:15.649Z,924.86
2019-02-19T13:40:47.590Z,924.78
2019-02-19T13:42:19.298Z,924.60
2019-02-19T13:43:51.093Z,924.54
2019-02-19T13:45:22.882Z,924.43
2019-02-19T13:48:26.627Z,924.38
2019-02-19T13:49:58.751Z,924.42
2019-02-19T13:51:30.399Z,924.27
2019-02-19T13:53:02.334Z,924.23
2019-02-19T13:54:34.047Z,924.44
2019-02-19T13:56:05.686Z,924.43
2019-02-19T13:59:09.318Z,924.41
2019-02-19T14:00:41.849Z,924.42
2019-02-19T14:03:45.134Z,924.29
2019-02-19T14:05:16.801Z,924.32
2019-02-19T14:06:48.908Z,924.43
2019-02-19T14:08:20.525Z,924.35
2019-02-19T14:09:52.496Z,924.29
2019-02-19T14:11:24.437Z,924.20
2019-02-19T14:12:56.235Z,924.15
2019-02-19T14:14:27.754Z,924.22
2019-02-19T14:17:31.734Z,924.31
2019-02-19T14:19:03.194Z,924.24
2019-02-19T14:20:34.930Z,924.15
2019-02-19T14:23:38.684Z,924.09
2019-02-19T14:25:10.774Z,924.15
2019-02-19T14:26:42.668Z,924.22
2019-02-19T14:28:14.150Z,924.02
2019-02-19T14:29:45.986Z,924.28
2019-02-19T14:31:18.085Z,924.03
2019-02-19T14:32:49.670Z,924.35
2019-02-19T14:34:21.477Z,924.65
2019-02-19T14:35:53.303Z,924.57
2019-02-19T14:37:25.213Z,924.77
2019-02-19T14:38:56.894Z,924.30
2019-02-19T14:40:28.788Z,924.39
2019-02-19T14:42:00.851Z,924.05
2019-02-19T14:43:33.146Z,923.90
2019-02-19T14:45:04.387Z,924.09
2019-02-19T14:46:36.535Z,924.15
2019-02-19T14:49:47.192Z,924.17
2019-02-19T14:51:11.615Z,924.18
2019-02-19T14:54:15.342Z,924.13
2019-02-19T14:57:19.317Z,924.15
2019-02-19T14:58:50.993Z,924.35
2019-02-19T15:00:22.751Z,924.32
2019-02-19T15:01:54.473Z,924.08
2019-02-19T15:03:26.550Z,924.00
2019-02-19T15:04:57.988Z,924.06
2019-02-19T15:06:30.058Z,924.19
2019-02-19T15:08:02.139Z,924.15
2019-02-19T15:09:33.467Z,924.11
2019-02-19T15:11:05.482Z,923.97
2019-02-19T15:12:37.277Z,923.81
2019-02-19T15:14:09.127Z,923.81
2019-02-19T15:15:40.790Z,923.75
2019-02-19T15:17:12.817Z,923.77
2019-02-19T15:18:44.420Z,923.90
2019-02-19T15:20:16.333Z,923.90
2019-02-19T15:21:48.926Z,924.08
2019-02-19T15:23:20.203Z,923.89
2019-02-19T15:24:51.728Z,923.80
2019-02-19T15:26:23.565Z,924.02
2019-02-19T15:27:55.389Z,923.93
2019-02-19T15:29:27.261Z,923.83
2019-02-19T15:30:59.275Z,924.05
2019-02-19T15:32:30.890Z,923.87
2019-02-19T15:34:02.754Z,923.87
2019-02-19T15:35:34.614Z,923.83
2019-02-19T15:37:06.388Z,923.92
2019-02-19T15:38:38.272Z,923.83
2019-02-19T15:40:10.157Z,923.91
2019-02-19T15:41:42.537Z,923.70
2019-02-19T15:43:13.729Z,923.65
2019-02-19T15:46:17.995Z,923.42
2019-02-19T15:47:49.313Z,923.65
2019-02-19T15:49:21.037Z,923.52
2019-02-19T15:50:52.924Z,923.36
2019-02-19T15:52:24.973Z,923.51
2019-02-19T15:53:56.624Z,923.58
2019-02-19T15:55:28.422Z,923.63
2019-02-19T15:57:00.856Z,923.48
2019-02-19T15:58:32.196Z,923.41
2019-02-19T16:00:03.861Z,923.57
2019-02-19T16:01:35.649Z,923.57
2019-02-19T16:03:08.982Z,923.55
2019-02-19T16:04:39.330Z,923.53
2019-02-19T16:06:12.081Z,923.56
2019-02-19T16:12:18.884Z,923.40
2019-02-19T16:13:50.212Z,923.20
2019-02-19T16:16:54.350Z,923.31
2019-02-19T16:18:25.928Z,923.28
2019-02-19T16:19:57.762Z,923.38
2019-02-19T16:21:29.344Z,923.58
2019-02-19T16:23:01.589Z,923.23
2019-02-19T16:24:33.150Z,923.28
2019-02-19T16:26:04.982Z,923.28
2019-02-19T16:27:38.463Z,923.23
2019-02-19T16:29:09.691Z,922.96
2019-02-19T16:30:40.348Z,922.91
2019-02-19T16:32:13.001Z,922.87
2019-02-19T16:33:44.249Z,922.72
2019-02-19T16:35:16.033Z,922.76
2019-02-19T16:36:47.777Z,922.77
2019-02-19T16:38:19.731Z,922.68
2019-02-19T16:39:52.198Z,922.83
2019-02-19T16:41:23.559Z,922.96
2019-02-19T16:42:55.649Z,922.72
2019-02-19T16:44:27.719Z,922.62
2019-02-19T16:45:58.616Z,922.78
2019-02-19T16:47:31.239Z,922.90
2019-02-19T16:49:02.597Z,922.77
2019-02-19T16:52:08.045Z,922.90
2019-02-19T16:53:38.040Z,923.03
2019-02-19T16:55:09.695Z,923.16
2019-02-19T16:56:41.464Z,922.85
2019-02-19T16:58:14.684Z,922.46
2019-02-19T16:59:45.483Z,922.77
2019-02-19T17:01:17.154Z,922.78
2019-02-19T17:02:50.288Z,922.51
2019-02-19T17:04:20.602Z,922.47
2019-02-19T17:05:52.443Z,922.68
2019-02-19T17:07:24.605Z,922.81
2019-02-19T17:08:56.935Z,922.72
2019-02-19T17:10:28.317Z,922.21
2019-02-19T17:13:31.730Z,922.03
2019-02-19T17:15:03.386Z,921.99
2019-02-19T17:16:35.490Z,922.10
2019-02-19T17:18:07.580Z,922.17
2019-02-19T17:19:38.770Z,921.97
2019-02-19T17:21:10.755Z,921.85
2019-02-19T17:22:42.484Z,921.85
2019-02-19T17:24:14.244Z,921.83
2019-02-19T17:30:22.216Z,921.60
2019-02-19T17:31:53.708Z,921.48
2019-02-19T17:33:25.243Z,921.51
2019-02-19T17:34:57.073Z,921.66
2019-02-19T17:36:29.252Z,921.91
2019-02-19T17:39:32.543Z,921.50
2019-02-19T17:41:04.695Z,921.47
2019-02-19T17:42:36.422Z,921.41
2019-02-19T17:44:08.175Z,921.37
2019-02-19T17:45:40.195Z,921.63
2019-02-19T17:47:14.277Z,921.63
2019-02-19T17:48:43.609Z,921.59
2019-02-19T17:50:15.394Z,921.47
2019-02-19T17:51:47.316Z,921.43
2019-02-19T17:53:19.062Z,921.61
2019-02-19T17:54:50.859Z,921.50
2019-02-19T17:56:23.268Z,921.66
2019-02-19T17:57:54.796Z,921.22
2019-02-19T17:59:26.406Z,921.31
2019-02-19T18:00:58.268Z,921.21
2019-02-19T18:02:29.962Z,921.17
2019-02-19T18:08:37.359Z,921.05
2019-02-19T18:10:09.129Z,921.47
2019-02-19T18:11:40.974Z,921.35
2019-02-19T18:13:12.777Z,921.34
2019-02-19T18:14:44.654Z,921.22
2019-02-19T18:16:16.737Z,921.08
2019-02-19T18:17:48.457Z,921.11
2019-02-19T18:19:20.975Z,921.00
2019-02-19T18:20:51.974Z,920.98
2019-02-19T18:22:24.673Z,921.14
2019-02-19T18:25:27.643Z,920.98
2019-02-19T18:26:59.864Z,920.97
2019-02-19T18:30:02.919Z,921.14
2019-02-19T18:31:35.175Z,921.12
2019-02-19T18:33:07.260Z,921.18
2019-02-19T18:34:38.623Z,921.07
2019-02-19T18:36:10.234Z,921.00
2019-02-19T18:37:41.965Z,921.11
2019-02-19T18:39:13.780Z,921.14
2019-02-19T18:40:45.747Z,921.03
2019-02-19T18:42:17.631Z,920.94
2019-02-19T18:43:49.367Z,921.09
2019-02-19T18:45:21.664Z,920.99
2019-02-19T18:46:53.079Z,920.83
2019-02-19T18:48:24.723Z,920.80
2019-02-19T18:49:57.088Z,921.00
2019-02-19T18:51:29.062Z,921.05
2019-02-19T18:53:00.248Z,920.79
2019-02-19T18:54:33.457Z,920.68
2019-02-19T18:56:04.889Z,920.52
2019-02-19T18:57:36.690Z,920.58
2019-02-19T18:59:07.640Z,920.57
2019-02-19T19:00:39.349Z,920.70
2019-02-19T19:02:11.547Z,920.72
2019-02-19T19:03:43.138Z,920.84
2019-02-19T19:05:15.744Z,920.86
2019-02-19T19:06:47.303Z,920.94
2019-02-19T19:08:18.580Z,920.82
2019-02-19T19:09:51.590Z,920.67
2019-02-19T19:11:22.288Z,920.71
2019-02-19T19:12:54.892Z,921.08
2019-02-19T19:14:25.811Z,920.93
2019-02-19T19:15:58.124Z,920.86
2019-02-19T19:17:29.454Z,921.04
2019-02-19T19:19:01.430Z,920.72
2019-02-19T19:20:33.310Z,920.69
2019-02-19T19:22:05.080Z,920.66
2019-02-19T19:23:36.648Z,920.76
2019-02-19T19:25:08.704Z,920.84
2019-02-19T19:26:40.314Z,921.00
2019-02-19T19:28:12.555Z,920.89
2019-02-19T19:29:43.967Z,920.92
2019-02-19T19:31:16.105Z,920.97
2019-02-19T19:32:47.894Z,920.88
2019-02-19T19:34:19.448Z,920.64
2019-02-19T19:37:23.228Z,920.65
2019-02-19T19:38:54.916Z,920.72
2019-02-19T19:40:26.921Z,920.73
2019-02-19T19:41:58.918Z,920.73
2019-02-19T19:43:30.507Z,920.72
2019-02-19T19:45:02.256Z,920.69
2019-02-19T19:46:34.152Z,920.77
2019-02-19T19:51:17.010Z,920.61
2019-02-19T19:52:41.407Z,920.67
2019-02-19T19:54:13.166Z,920.64
2019-02-19T19:57:16.780Z,920.67
2019-02-19T19:58:48.768Z,920.77
2019-02-19T20:00:20.676Z,920.61
2019-02-19T20:01:52.275Z,920.79
2019-02-19T20:03:24.124Z,920.82
2019-02-19T20:04:55.960Z,920.77
2019-02-19T20:06:27.764Z,920.77
2019-02-19T20:07:59.730Z,920.70
2019-02-19T20:09:31.427Z,920.69
2019-02-19T20:11:03.252Z,920.59
2019-02-19T20:12:35.376Z,920.62
2019-02-19T20:14:06.958Z,920.66
2019-02-19T20:15:38.873Z,920.80
2019-02-19T20:17:10.884Z,920.67
2019-02-19T20:18:42.345Z,920.73
2019-02-19T20:21:46.006Z,920.67
2019-02-19T20:24:49.801Z,920.68
2019-02-19T20:26:21.490Z,920.67
2019-02-19T20:27:53.326Z,920.66
2019-02-19T20:29:25.063Z,920.65
2019-02-19T20:30:57.343Z,920.68